KHRL

Valley International Airport

Airport
ICAO code
KHRL
Summary
ICAO Region
NAM
ICAO Territory
Location

Harlington, Texas,

Elevation
36 ft
Coordinates
26° 13' 26" N , 97° 39' 43" W
KCC
Airport LOS
Parallel Runway Operation
Metar
KHRL 251552Z 13007KT 10SM FEW027 32/26 A2992 RMK AO2 SLP131 T03170256 $

Description

Valley International Airport is a public use airport located 6 km northeast of the central business district of Harlingen, a city in Cameron County, Texas.

Climatology

Humid “subtropical” climate (Köppen climate classification Cfa) - characterized by hot, humid summers and mild winters. Most rainfall occurs during summer and is often associated with thunderstorms and occasional tropical storms (hurricanes).

Airport map

Aerial View

SKYbrary Partners:

Safety knowledge contributed by: